createdAt,value
2017-08-12T00:00:50.052Z,5.90
2017-08-12T00:21:45.192Z,6.83
2017-08-12T00:32:08.538Z,7.30
2017-08-12T00:47:49.097Z,8.83
2017-08-12T00:58:11.786Z,10.33
2017-08-12T01:08:34.460Z,11.20
2017-08-12T01:29:35.051Z,14.23
2017-08-12T01:50:42.706Z,14.30
2017-08-12T02:01:04.519Z,9.97
2017-08-12T02:22:01.905Z,7.57
2017-08-12T02:32:25.505Z,6.90
2017-08-12T02:42:48.743Z,5.70
2017-08-12T02:53:23.203Z,3.43
2017-08-12T03:07:17.177Z,4.10
2017-08-12T03:38:43.266Z,5.30
2017-08-12T03:49:05.069Z,6.67
2017-08-12T03:59:27.897Z,6.90
2017-08-12T04:09:50.505Z,7.43
2017-08-12T04:20:13.046Z,10.40
2017-08-12T04:30:35.645Z,11.30
2017-08-12T04:46:16.104Z,14.80
2017-08-12T04:56:38.785Z,14.80
2017-08-12T05:07:00.763Z,14.63
2017-08-12T05:17:23.308Z,14.50
2017-08-12T05:27:46.029Z,15.73
2017-08-12T05:38:07.830Z,16.67
2017-08-12T05:52:49.732Z,12.13
2017-08-12T06:03:11.730Z,20.87
2017-08-12T06:13:36.521Z,19.40
2017-08-12T06:23:59.247Z,18.00
2017-08-12T06:34:21.881Z,21.00
2017-08-12T06:44:44.575Z,23.23
2017-08-12T06:55:11.155Z,28.10
2017-08-12T07:05:34.463Z,33.83
2017-08-12T07:15:56.383Z,32.60
2017-08-12T07:26:20.578Z,28.90
2017-08-12T07:36:48.139Z,31.03
2017-08-12T07:47:11.115Z,27.90
2017-08-12T07:57:33.886Z,30.83
2017-08-12T08:07:55.866Z,30.50
2017-08-12T08:18:18.556Z,29.00
2017-08-12T08:28:41.379Z,28.07
2017-08-12T08:39:03.504Z,24.40
2017-08-12T08:49:26.908Z,22.90
2017-08-12T08:59:49.981Z,23.13
2017-08-12T09:10:12.711Z,20.53
2017-08-12T09:20:35.342Z,20.30
2017-08-12T09:30:58.173Z,17.55
2017-08-12T09:46:35.988Z,17.73
2017-08-12T09:56:57.269Z,16.50
2017-08-12T10:07:19.224Z,16.15
2017-08-12T10:17:41.937Z,17.20
2017-08-12T10:28:03.993Z,16.50
2017-08-12T10:38:26.587Z,15.13
2017-08-12T10:48:49.474Z,14.65
2017-08-12T10:53:55.379Z,12.60
2017-08-12T11:04:18.083Z,13.25
2017-08-12T11:14:55.114Z,12.00
2017-08-12T11:30:43.303Z,13.35
2017-08-12T11:41:22.208Z,13.70
2017-08-12T12:29:10.088Z,6.33
2017-08-12T12:39:37.100Z,4.70
2017-08-12T12:50:01.721Z,4.70
2017-08-12T13:11:29.024Z,3.93
2017-08-12T13:21:50.810Z,3.40
2017-08-12T13:32:13.506Z,2.90
2017-08-12T13:47:51.934Z,1.80
2017-08-12T13:58:12.994Z,1.90
2017-08-12T14:08:42.191Z,2.37
2017-08-12T14:19:08.048Z,2.20
2017-08-12T14:29:35.773Z,2.70
2017-08-12T14:40:01.636Z,2.90
2017-08-12T14:50:28.140Z,2.80
2017-08-12T15:06:14.861Z,5.15
2017-08-12T15:16:40.921Z,8.93
2017-08-12T15:27:08.549Z,9.13
2017-08-12T15:48:14.283Z,7.60
2017-08-12T15:58:35.879Z,7.87
2017-08-12T16:09:02.967Z,9.70
2017-08-12T16:19:25.483Z,10.50
2017-08-12T16:29:48.148Z,11.40
2017-08-12T16:55:59.105Z,13.63
2017-08-12T17:06:21.812Z,15.20
2017-08-12T17:16:44.440Z,13.93
2017-08-12T17:27:06.327Z,13.45
2017-08-12T17:37:29.036Z,13.30
2017-08-12T17:47:55.626Z,13.73
2017-08-12T17:58:20.541Z,13.60
2017-08-12T18:08:42.237Z,13.80
2017-08-12T18:19:08.819Z,12.07
2017-08-12T18:24:14.657Z,11.30
2017-08-12T18:34:37.299Z,13.87
2017-08-12T18:50:16.053Z,13.70
2017-08-12T19:00:38.138Z,15.70
2017-08-12T19:11:05.793Z,15.30
2017-08-12T19:21:29.004Z,13.60
2017-08-12T19:31:54.609Z,12.80
2017-08-12T20:08:55.868Z,15.30
2017-08-12T20:19:18.442Z,13.93
2017-08-12T20:29:53.434Z,13.52
2017-08-12T20:45:38.336Z,12.40
2017-08-12T20:56:05.025Z,13.52
2017-08-12T21:06:36.556Z,13.57
2017-08-12T21:27:44.114Z,16.07
2017-08-12T21:38:06.643Z,16.73
2017-08-12T21:48:29.224Z,19.00
2017-08-12T22:04:21.661Z,17.37
2017-08-12T22:14:48.249Z,15.30
2017-08-12T22:25:10.015Z,18.17
2017-08-12T22:35:32.614Z,18.80
2017-08-12T22:45:55.172Z,19.52
2017-08-12T22:56:21.749Z,20.17
2017-08-12T23:06:43.560Z,22.52
2017-08-12T23:17:05.357Z,20.30
2017-08-12T23:27:27.150Z,20.75
2017-08-12T23:37:51.681Z,18.10
2017-08-12T23:48:14.296Z,16.00
2017-08-12T23:58:36.860Z,15.30
